createdAt,value
2022-12-28T00:02:41.473Z,2.73
2022-12-28T00:13:58.227Z,4.03
2022-12-28T00:21:15.904Z,4.53
2022-12-28T00:25:14.369Z,4.07
2022-12-28T00:32:03.642Z,2.97
2022-12-28T00:38:46.261Z,2.87
2022-12-28T00:45:32.893Z,3.40
2022-12-28T00:52:23.711Z,2.90
2022-12-28T00:59:12.486Z,3.37
2022-12-28T01:06:14.368Z,2.67
2022-12-28T01:12:56.433Z,2.57
2022-12-28T01:19:46.187Z,2.90
2022-12-28T01:26:35.847Z,2.27
2022-12-28T01:33:17.654Z,2.83
2022-12-28T01:40:09.989Z,2.67
2022-12-28T01:47:05.982Z,2.80
2022-12-28T01:53:48.732Z,2.23
2022-12-28T02:00:40.034Z,2.33
2022-12-28T02:07:39.045Z,2.87
2022-12-28T02:11:30.916Z,3.03
2022-12-28T02:18:14.246Z,2.53
2022-12-28T02:25:24.325Z,3.40
2022-12-28T02:32:57.144Z,2.63
2022-12-28T02:36:40.884Z,2.58
2022-12-28T02:43:24.049Z,2.60
2022-12-28T02:50:19.648Z,2.13
2022-12-28T02:57:19.389Z,2.63
2022-12-28T03:04:11.334Z,2.97
2022-12-28T03:07:52.151Z,2.63
2022-12-28T03:10:30.441Z,3.20
2022-12-28T03:17:37.025Z,2.80
2022-12-28T03:24:42.240Z,2.45
2022-12-28T03:28:30.902Z,2.97
2022-12-28T03:35:29.358Z,2.03
2022-12-28T03:42:40.754Z,2.65
2022-12-28T03:49:09.333Z,2.80
2022-12-28T03:56:17.644Z,2.03
2022-12-28T04:03:01.015Z,1.90
2022-12-28T04:09:48.295Z,2.77
2022-12-28T04:16:35.393Z,2.67
2022-12-28T04:23:20.263Z,2.27
2022-12-28T04:30:11.450Z,2.40
2022-12-28T04:36:59.173Z,2.37
2022-12-28T04:43:41.501Z,2.73
2022-12-28T04:50:30.979Z,2.37
2022-12-28T04:57:22.616Z,2.33
2022-12-28T05:04:24.620Z,2.50
2022-12-28T05:11:14.726Z,2.30
2022-12-28T05:17:58.616Z,2.60
2022-12-28T05:24:53.367Z,2.80
2022-12-28T05:31:52.343Z,2.10
2022-12-28T05:38:42.469Z,2.67
2022-12-28T05:49:42.569Z,3.10
2022-12-28T05:56:30.845Z,2.73
2022-12-28T06:03:16.034Z,2.00
2022-12-28T06:10:05.269Z,2.70
2022-12-28T06:16:57.726Z,2.30
2022-12-28T06:23:39.199Z,2.50
2022-12-28T06:30:31.384Z,2.23
2022-12-28T06:37:18.644Z,2.17
2022-12-28T06:44:00.964Z,2.30
2022-12-28T06:47:35.093Z,2.63
2022-12-28T06:54:24.971Z,2.30
2022-12-28T07:01:20.427Z,2.00
2022-12-28T07:08:03.390Z,3.37
2022-12-28T07:14:53.527Z,3.83
2022-12-28T07:21:41.281Z,3.13
2022-12-28T07:28:29.680Z,3.33
2022-12-28T07:35:16.792Z,3.10
2022-12-28T07:50:04.639Z,3.43
2022-12-28T07:53:56.139Z,3.40
2022-12-28T08:00:44.873Z,2.63
2022-12-28T08:07:37.939Z,3.77
2022-12-28T08:14:30.955Z,3.60
2022-12-28T08:21:35.140Z,3.80
2022-12-28T08:28:17.120Z,4.13
2022-12-28T08:35:08.271Z,4.00
2022-12-28T08:41:55.797Z,3.73
2022-12-28T08:48:38.521Z,3.53
2022-12-28T08:52:16.271Z,3.27
2022-12-28T08:58:58.782Z,3.87
2022-12-28T09:05:52.737Z,4.00
2022-12-28T09:12:42.550Z,4.63
2022-12-28T09:19:31.173Z,4.40
2022-12-28T09:26:37.111Z,5.20
2022-12-28T09:34:13.945Z,5.53
2022-12-28T09:37:47.388Z,5.00
2022-12-28T09:44:56.226Z,4.80
2022-12-28T09:56:18.960Z,7.40
2022-12-28T10:00:25.459Z,7.07
2022-12-28T10:07:16.413Z,5.88
2022-12-28T10:14:02.582Z,5.68
2022-12-28T10:20:49.901Z,5.10
2022-12-28T10:27:39.139Z,4.45
2022-12-28T10:34:53.568Z,3.15
2022-12-28T10:42:19.465Z,1.60
2022-12-28T10:58:30.263Z,1.02
2022-12-28T11:28:20.095Z,0.68
2022-12-28T11:35:11.804Z,0.47
2022-12-28T11:49:32.609Z,0.60
2022-12-28T11:56:23.066Z,0.50
2022-12-28T12:03:23.644Z,0.73
2022-12-28T12:14:58.317Z,0.60
2022-12-28T12:22:11.172Z,0.60
2022-12-28T12:33:08.896Z,0.40
2022-12-28T12:44:46.263Z,0.45
2022-12-28T12:51:54.717Z,0.80
2022-12-28T12:56:01.666Z,0.70
2022-12-28T13:07:26.406Z,0.60
2022-12-28T13:14:21.720Z,0.65
2022-12-28T13:21:33.328Z,0.70
2022-12-28T13:25:42.508Z,0.60
2022-12-28T13:33:02.765Z,0.43
2022-12-28T13:39:50.803Z,0.70
2022-12-28T13:46:48.952Z,0.80
2022-12-28T13:53:51.694Z,0.80
2022-12-28T14:00:59.480Z,1.13
2022-12-28T14:07:56.987Z,0.70
2022-12-28T14:15:01.074Z,0.52
2022-12-28T14:21:52.605Z,0.65
2022-12-28T14:33:13.432Z,1.67
2022-12-28T14:46:06.991Z,0.80
2022-12-28T14:49:35.399Z,1.30
2022-12-28T15:00:47.978Z,0.70
2022-12-28T15:15:14.920Z,0.73
2022-12-28T15:22:35.455Z,0.85
2022-12-28T15:33:55.892Z,0.40
2022-12-28T15:41:00.457Z,0.93
2022-12-28T15:47:48.175Z,0.60
2022-12-28T15:54:33.235Z,0.82
2022-12-28T16:01:37.457Z,0.77
2022-12-28T16:08:32.110Z,0.80
2022-12-28T16:15:39.881Z,1.65
2022-12-28T16:22:32.291Z,0.70
2022-12-28T16:29:13.611Z,0.60
2022-12-28T16:36:30.977Z,0.80
2022-12-28T16:43:36.276Z,0.95
2022-12-28T16:50:32.586Z,0.90
2022-12-28T16:54:10.169Z,0.82
2022-12-28T17:01:52.590Z,1.10
2022-12-28T17:17:15.952Z,1.42
2022-12-28T18:08:45.287Z,1.27
2022-12-28T18:15:41.424Z,1.80
2022-12-28T18:22:33.841Z,1.98
2022-12-28T18:29:20.086Z,2.15
2022-12-28T18:43:20.780Z,3.08
2022-12-28T18:50:21.624Z,2.42
2022-12-28T19:04:15.928Z,1.98
2022-12-28T19:11:17.287Z,2.50
2022-12-28T19:18:15.774Z,1.60
2022-12-28T19:32:58.964Z,3.75
2022-12-28T19:36:36.777Z,3.35
2022-12-28T19:47:03.765Z,4.53
2022-12-28T19:53:54.065Z,4.77
2022-12-28T20:00:52.060Z,3.30
2022-12-28T20:07:44.466Z,3.55
2022-12-28T20:14:49.291Z,3.70
2022-12-28T20:22:09.990Z,3.28
2022-12-28T20:29:06.815Z,3.53
2022-12-28T20:36:16.249Z,2.63
2022-12-28T20:40:11.414Z,3.10
2022-12-28T20:47:11.758Z,2.22
2022-12-28T21:01:18.860Z,1.73
2022-12-28T21:08:10.819Z,2.00
2022-12-28T21:14:59.328Z,1.63
2022-12-28T21:21:57.811Z,1.80
2022-12-28T21:29:00.051Z,2.53
2022-12-28T21:40:04.144Z,2.40
2022-12-28T21:46:57.637Z,2.47
2022-12-28T21:53:50.502Z,2.97
2022-12-28T22:01:02.696Z,3.67
2022-12-28T22:08:16.629Z,3.80
2022-12-28T22:12:21.860Z,3.58
2022-12-28T22:26:43.300Z,4.75
2022-12-28T22:33:34.498Z,5.28
2022-12-28T22:40:18.798Z,6.85
2022-12-28T22:47:12.291Z,5.88
2022-12-28T22:54:01.794Z,6.25
2022-12-28T23:00:53.562Z,6.38
2022-12-28T23:07:42.441Z,6.22
2022-12-28T23:14:50.460Z,6.15
2022-12-28T23:21:56.227Z,6.07
2022-12-28T23:28:46.029Z,4.72
2022-12-28T23:35:35.023Z,3.20
2022-12-28T23:58:12.585Z,1.85
